Time;durP1;ratioP1;P1;durP2;ratioP2;P2;SDS_P1;SDS_P2;PMS_P1;PMS_P2;Temp;Humidity;BMP_temperature;BMP_pressure;BME280_temperature;BME280_humidity;BME280_pressure;Samples;Min_cycle;Max_cycle;Signal;HPM_P1;HPM_P2
2023/03/18 00:00:26;;;;;;;;;6.67;6.67;;;;;14.09;100.00;100610.00;5020509;28;46649;-78
2023/03/18 00:02:52;;;;;;;;;6.67;6.67;;;;;14.07;100.00;100615.31;5023970;28;45260;-78
2023/03/18 00:05:18;;;;;;;;;9.33;6.33;;;;;14.08;100.00;100617.06;5019636;28;45419;-77
2023/03/18 00:07:45;;;;;;;;;8.00;7.00;;;;;14.07;100.00;100622.41;5000766;28;45454;-79
2023/03/18 00:10:11;;;;;;;;;8.67;8.00;;;;;14.07;100.00;100622.41;5000513;28;47932;-80
2023/03/18 00:12:40;;;;;;;;;7.00;7.00;;;;;14.07;100.00;100625.06;5017813;28;45459;-79
2023/03/18 00:15:08;;;;;;;;;8.00;7.00;;;;;14.05;100.00;100629.47;5000465;28;45689;-80
2023/03/18 00:17:33;;;;;;;;;6.67;6.67;;;;;14.04;100.00;100628.59;5017630;28;45495;-79
2023/03/18 00:20:04;;;;;;;;;14.00;8.33;;;;;14.04;100.00;100617.09;5017500;28;46568;-79
2023/03/18 00:22:31;;;;;;;;;9.33;8.00;;;;;14.03;100.00;100621.53;5017538;28;45552;-76
2023/03/18 00:24:56;;;;;;;;;16.00;9.33;;;;;14.03;100.00;100631.28;5017881;28;45390;-79
2023/03/18 00:27:22;;;;;;;;;12.67;8.67;;;;;14.01;100.00;100631.28;5014998;28;58591;-80
2023/03/18 00:29:48;;;;;;;;;7.33;7.33;;;;;14.00;100.00;100649.88;5107176;22;45996;-79
2023/03/18 00:32:14;;;;;;;;;12.67;10.00;;;;;13.95;100.00;100633.97;5034669;28;45277;-78
2023/03/18 00:34:40;;;;;;;;;10.00;8.00;;;;;13.93;100.00;100635.75;5037171;28;45455;-78
2023/03/18 00:37:07;;;;;;;;;14.67;11.00;;;;;13.91;100.00;100641.97;5035101;28;45532;-79
2023/03/18 00:39:32;;;;;;;;;13.00;7.00;;;;;13.88;100.00;100629.59;5037309;28;47453;-78
2023/03/18 00:41:58;;;;;;;;;11.00;8.00;;;;;13.90;100.00;100633.09;5035460;28;45383;-79
2023/03/18 00:44:25;;;;;;;;;6.33;6.33;;;;;13.91;100.00;100636.66;5032434;28;45492;-78
2023/03/18 00:46:50;;;;;;;;;9.67;8.00;;;;;13.87;100.00;100622.53;5033255;28;45512;-78
2023/03/18 00:49:16;;;;;;;;;9.00;8.00;;;;;13.85;100.00;100626.97;5029731;28;46232;-78
2023/03/18 00:51:42;;;;;;;;;13.67;9.33;;;;;13.80;100.00;100631.41;5013802;28;45516;-79
2023/03/18 00:54:11;;;;;;;;;8.00;6.67;;;;;13.78;100.00;100614.59;5034796;28;45730;-80
2023/03/18 00:56:36;;;;;;;;;8.00;6.67;;;;;13.76;100.00;100619.94;5029120;28;45541;-78
2023/03/18 00:59:03;;;;;;;;;8.33;7.00;;;;;13.74;100.00;100628.78;5031210;28;47581;-78
2023/03/18 01:01:28;;;;;;;;;6.67;6.67;;;;;13.73;100.00;100627.88;5020242;28;45488;-80
2023/03/18 01:03:54;;;;;;;;;7.67;7.67;;;;;13.73;100.00;100622.59;5036222;28;45510;-79
2023/03/18 01:06:22;;;;;;;;;12.33;9.33;;;;;13.71;100.00;100627.03;5036407;28;45474;-77
2023/03/18 01:08:48;;;;;;;;;12.00;7.67;;;;;13.66;100.00;100634.13;5033943;28;47982;-78
2023/03/18 01:11:14;;;;;;;;;7.00;5.67;;;;;13.65;100.00;100632.38;5014606;28;45526;-79
2023/03/18 01:13:40;;;;;;;;;8.67;6.00;;;;;13.63;100.00;100632.38;5019439;28;45515;-78
2023/03/18 01:16:06;;;;;;;;;8.33;6.33;;;;;13.62;100.00;100632.38;5013755;28;45615;-79
2023/03/18 01:18:33;;;;;;;;;7.00;6.00;;;;;13.61;100.00;100617.34;5032575;28;45965;-79
2023/03/18 01:20:59;;;;;;;;;7.33;6.00;;;;;13.58;100.00;100605.00;5013025;28;45255;-78
2023/03/18 01:23:24;;;;;;;;;7.00;5.00;;;;;13.59;100.00;100611.19;5014517;28;45322;-78
2023/03/18 01:25:50;;;;;;;;;5.00;4.67;;;;;13.59;100.00;100609.41;5018489;28;45560;-78
2023/03/18 01:28:16;;;;;;;;;5.00;4.33;;;;;13.57;100.00;100604.97;5034525;28;73283;-78
2023/03/18 01:30:42;;;;;;;;;6.00;5.00;;;;;13.54;100.00;100597.94;5034908;28;56043;-78
2023/03/18 01:33:07;;;;;;;;;6.00;5.00;;;;;13.56;100.00;100597.91;5036827;28;45208;-79
2023/03/18 01:35:34;;;;;;;;;7.00;4.67;;;;;13.55;100.00;100597.03;5016574;28;46162;-78
2023/03/18 01:38:01;;;;;;;;;9.33;5.00;;;;;13.55;100.00;100591.75;5036465;28;47376;-80
2023/03/18 01:40:27;;;;;;;;;5.67;4.67;;;;;13.54;100.00;100594.41;5032339;28;45553;-77
2023/03/18 01:42:58;;;;;;;;;6.33;6.00;;;;;13.51;100.00;100586.44;5034872;28;45358;-78
2023/03/18 01:45:28;;;;;;;;;6.67;5.67;;;;;13.53;100.00;100593.53;5027609;28;45451;-78
2023/03/18 01:47:56;;;;;;;;;4.00;4.00;;;;;13.56;100.00;100595.28;5032135;28;47888;-78
2023/03/18 01:50:26;;;;;;;;;5.33;5.00;;;;;13.56;100.00;100596.16;5027863;28;45340;-78
2023/03/18 01:52:55;;;;;;;;;8.33;5.00;;;;;13.58;100.00;100593.47;5035552;28;45438;-78
2023/03/18 01:55:24;;;;;;;;;6.00;6.00;;;;;13.60;100.00;100595.25;5027659;28;45511;-79
2023/03/18 01:57:50;;;;;;;;;10.33;7.00;;;;;13.61;100.00;100604.97;5028101;28;46381;-79
2023/03/18 02:00:16;;;;;;;;;8.00;6.67;;;;;13.60;100.00;100595.25;5030800;28;46800;-77
2023/03/18 02:02:43;;;;;;;;;8.33;6.00;;;;;13.65;100.00;100599.66;5022922;28;45426;-78
2023/03/18 02:05:11;;;;;;;;;9.67;6.33;;;;;13.62;100.00;100588.16;5035007;28;45552;-78
2023/03/18 02:07:39;;;;;;;;;10.00;10.00;;;;;13.63;100.00;100592.59;5032450;28;46025;-78
2023/03/18 02:10:27;;;;;;;;;12.00;8.33;;;;;13.60;100.00;100583.75;5035897;28;45370;-79
2023/03/18 02:12:59;;;;;;;;;7.67;5.00;;;;;13.61;100.00;100572.25;5027566;28;45553;-77
2023/03/18 02:15:26;;;;;;;;;8.33;7.00;;;;;13.61;100.00;100575.78;5016926;28;45458;-79
2023/03/18 02:18:13;;;;;;;;;10.33;7.00;;;;;13.66;100.00;100582.84;5036619;28;47544;-78
2023/03/18 02:20:50;;;;;;;;;10.33;7.67;;;;;13.66;100.00;100598.75;5011150;28;45454;-80
2023/03/18 02:23:33;;;;;;;;;9.33;6.00;;;;;13.68;100.00;100600.50;5030275;28;45465;-78
2023/03/18 02:26:35;;;;;;;;;10.33;6.00;;;;;13.71;100.00;100596.97;5031246;28;45786;-79
2023/03/18 02:29:03;;;;;;;;;5.00;5.00;;;;;13.72;100.00;100589.00;5016049;28;47793;-78
2023/03/18 02:31:30;;;;;;;;;6.33;6.33;;;;;13.74;100.00;100602.22;5017548;28;45460;-78
2023/03/18 02:33:57;;;;;;;;;6.67;6.67;;;;;13.77;100.00;100608.41;5034342;28;45406;-78
2023/03/18 02:36:27;;;;;;;;;6.00;6.00;;;;;13.78;100.00;100599.56;5018259;28;45274;-79
2023/03/18 02:38:53;;;;;;;;;7.33;7.00;;;;;13.76;100.00;100593.41;5030671;28;47296;-79
2023/03/18 02:41:22;;;;;;;;;10.33;8.00;;;;;13.78;100.00;100591.59;5031029;28;45437;-78
2023/03/18 02:43:48;;;;;;;;;7.00;6.00;;;;;13.80;100.00;100600.44;5032411;28;45362;-79
2023/03/18 02:46:13;;;;;;;;;6.00;5.00;;;;;13.82;100.00;100608.41;5036081;28;45367;-78
2023/03/18 02:48:42;;;;;;;;;10.00;4.00;;;;;13.81;100.00;100610.16;5028323;28;46324;-79
2023/03/18 02:51:08;;;;;;;;;4.33;4.33;;;;;13.83;100.00;100611.03;5017105;28;45509;-79
2023/03/18 02:53:35;;;;;;;;;4.00;4.00;;;;;13.82;100.00;100609.28;5027566;28;45371;-79
2023/03/18 02:56:00;;;;;;;;;3.33;3.33;;;;;13.85;100.00;100619.00;5029816;28;45427;-78
2023/03/18 02:58:26;;;;;;;;;7.00;3.67;;;;;13.85;100.00;100605.75;5027312;28;47228;-78
2023/03/18 03:00:51;;;;;;;;;3.00;3.00;;;;;13.87;100.00;100603.94;5040716;28;45457;-78
2023/03/18 03:03:17;;;;;;;;;5.00;4.00;;;;;13.91;100.00;100615.44;5035113;28;45217;-78
2023/03/18 03:05:43;;;;;;;;;3.33;3.33;;;;;13.91;100.00;100612.78;5039882;28;45585;-78
2023/03/18 03:08:09;;;;;;;;;4.00;3.00;;;;;13.89;100.00;100618.06;5038648;28;46709;-79
2023/03/18 03:10:34;;;;;;;;;4.00;4.00;;;;;13.89;100.00;100613.66;5042248;28;45675;-78
2023/03/18 03:13:00;;;;;;;;;7.00;3.00;;;;;13.89;100.00;100624.25;5038790;28;45308;-76
2023/03/18 03:15:25;;;;;;;;;3.00;3.00;;;;;13.90;100.00;100630.44;5034965;28;45527;-79
2023/03/18 03:17:52;;;;;;;;;6.67;4.00;;;;;13.91;100.00;100624.28;5028979;28;58851;-79
2023/03/18 03:20:18;;;;;;;;;5.00;4.00;;;;;13.92;100.00;100618.06;5038844;28;45449;-78
2023/03/18 03:22:43;;;;;;;;;5.67;3.00;;;;;13.91;100.00;100621.63;5039495;28;45390;-79
2023/03/18 03:25:10;;;;;;;;;5.00;5.00;;;;;13.92;100.00;100617.19;5037574;28;45343;-79
2023/03/18 03:27:36;;;;;;;;;3.00;3.00;;;;;13.92;100.00;100615.41;5038153;28;46609;-80
2023/03/18 03:30:04;;;;;;;;;3.00;3.00;;;;;13.91;100.00;100618.97;5019090;28;45364;-77
2023/03/18 03:32:30;;;;;;;;;3.00;3.00;;;;;13.93;100.00;100624.25;5037644;28;45501;-78
2023/03/18 03:34:56;;;;;;;;;4.00;3.00;;;;;13.94;100.00;100624.25;5036107;28;45514;-78
2023/03/18 03:37:21;;;;;;;;;6.00;4.00;;;;;13.96;100.00;100618.94;5017631;28;45797;-78
2023/03/18 03:39:47;;;;;;;;;4.00;3.00;;;;;13.97;100.00;100628.66;5037948;28;67408;-79
2023/03/18 03:42:13;;;;;;;;;4.00;4.00;;;;;13.98;100.00;100638.38;5038216;28;46026;-79
2023/03/18 03:44:39;;;;;;;;;2.33;2.00;;;;;13.97;100.00;100620.69;5038618;28;45445;-79
2023/03/18 03:47:05;;;;;;;;;7.00;2.33;;;;;13.98;100.00;100627.75;5017987;28;46721;-78
2023/03/18 03:49:30;;;;;;;;;4.00;3.00;;;;;13.97;100.00;100624.22;5031222;28;45285;-79
2023/03/18 03:51:56;;;;;;;;;2.00;2.00;;;;;13.98;100.00;100620.69;5015287;28;45448;-78
2023/03/18 03:54:22;;;;;;;;;5.00;3.67;;;;;13.96;100.00;100627.78;5035204;28;45539;-79
2023/03/18 03:56:47;;;;;;;;;2.33;1.67;;;;;13.97;100.00;100636.63;5032489;28;46483;-78
2023/03/18 03:59:13;;;;;;;;;3.00;3.00;;;;;13.98;100.00;100636.59;5031994;28;67543;-78
2023/03/18 04:01:38;;;;;;;;;3.00;2.00;;;;;13.97;100.00;100634.84;5013277;28;45423;-79
2023/03/18 04:04:04;;;;;;;;;5.00;4.00;;;;;13.99;100.00;100645.44;5037618;28;45406;-77
2023/03/18 04:06:29;;;;;;;;;5.67;3.00;;;;;13.99;100.00;100642.78;5036424;28;45347;-78
2023/03/18 04:08:55;;;;;;;;;4.67;3.00;;;;;13.98;100.00;100641.91;5031877;28;45384;-78
2023/03/18 04:11:21;;;;;;;;;4.00;2.00;;;;;13.96;100.00;100635.75;5037700;28;45501;-78
2023/03/18 04:13:46;;;;;;;;;4.00;3.00;;;;;13.97;100.00;100639.28;5030538;28;45416;-80
2023/03/18 04:16:13;;;;;;;;;6.00;5.00;;;;;13.97;100.00;100634.84;5038201;28;45594;-80
2023/03/18 04:18:39;;;;;;;;;2.00;2.00;;;;;13.98;100.00;100641.91;5033338;28;45396;-80
2023/03/18 04:21:04;;;;;;;;;3.00;3.00;;;;;13.99;100.00;100637.50;5030408;28;45522;-80
2023/03/18 04:23:31;;;;;;;;;4.00;2.00;;;;;13.97;100.00;100631.31;5035796;28;45275;-79
2023/03/18 04:25:57;;;;;;;;;5.67;3.67;;;;;13.96;100.00;100634.88;5036828;28;45837;-79
2023/03/18 04:28:23;;;;;;;;;2.00;1.67;;;;;13.95;100.00;100633.97;5034745;28;66219;-79
2023/03/18 04:30:49;;;;;;;;;5.67;2.00;;;;;13.94;100.00;100641.94;5033593;28;45485;-79
2023/03/18 04:33:14;;;;;;;;;2.00;2.00;;;;;13.93;100.00;100634.88;5031120;28;45574;-78
2023/03/18 04:35:42;;;;;;;;;1.00;1.00;;;;;13.91;100.00;100629.59;5014677;28;47526;-79
2023/03/18 04:38:08;;;;;;;;;2.67;2.33;;;;;13.91;100.00;100634.88;5036899;28;45314;-79
2023/03/18 04:40:33;;;;;;;;;5.00;2.00;;;;;13.91;100.00;100628.72;5030599;28;45474;-78
2023/03/18 04:42:58;;;;;;;;;3.33;2.00;;;;;13.92;100.00;100630.47;5035955;28;63835;-80
2023/03/18 04:45:23;;;;;;;;;1.00;1.00;;;;;13.94;100.00;100634.84;5035096;28;69360;-80
2023/03/18 04:47:49;;;;;;;;;3.00;1.00;;;;;13.94;100.00;100628.66;5030593;28;68090;-80
2023/03/18 04:50:14;;;;;;;;;1.00;1.00;;;;;13.95;100.00;100641.03;5032733;28;45521;-78
2023/03/18 04:52:41;;;;;;;;;2.00;2.00;;;;;13.95;100.00;100639.25;5009133;28;45606;-79
2023/03/18 04:55:08;;;;;;;;;2.67;2.67;;;;;13.96;100.00;100626.91;5014480;28;46423;-79
2023/03/18 04:57:36;;;;;;;;;3.00;2.00;;;;;13.94;100.00;100629.53;5031284;28;45533;-78
2023/03/18 05:00:04;;;;;;;;;2.00;2.00;;;;;13.93;100.00;100632.22;5036840;28;45474;-80
2023/03/18 05:02:30;;;;;;;;;2.00;2.00;;;;;13.91;100.00;100637.53;5041463;28;45519;-78
2023/03/18 05:04:56;;;;;;;;;4.33;2.67;;;;;13.89;100.00;100626.03;5037081;28;45208;-79
2023/03/18 05:07:21;;;;;;;;;2.67;2.67;;;;;13.86;100.00;100615.47;5032200;28;45547;-80
2023/03/18 05:09:47;;;;;;;;;2.67;2.67;;;;;13.83;100.00;100615.47;5019736;28;45504;-78
2023/03/18 05:12:14;;;;;;;;;2.00;2.00;;;;;13.79;100.00;100611.94;5034436;28;45260;-78
2023/03/18 05:14:41;;;;;;;;;3.67;2.00;;;;;13.76;100.00;100608.44;5032249;28;45686;-79
2023/03/18 05:17:07;;;;;;;;;2.67;2.00;;;;;13.74;100.00;100615.50;5035118;28;45410;-79
2023/03/18 05:19:33;;;;;;;;;2.00;1.00;;;;;13.70;100.00;100616.44;5029811;28;45490;-78
2023/03/18 05:21:59;;;;;;;;;1.00;1.00;;;;;13.63;100.00;100615.56;5033855;28;62387;-80
2023/03/18 05:24:24;;;;;;;;;2.00;2.00;;;;;13.58;100.00;100612.03;5015683;28;48674;-80
2023/03/18 05:26:50;;;;;;;;;2.00;2.00;;;;;13.53;100.00;100621.78;5018478;28;68218;-79
2023/03/18 05:29:15;;;;;;;;;3.00;1.00;;;;;13.45;100.00;100608.59;5034426;28;45438;-78
2023/03/18 05:31:42;;;;;;;;;1.00;1.00;;;;;13.41;100.00;100614.78;5035447;28;45660;-78
2023/03/18 05:34:07;;;;;;;;;6.00;1.67;;;;;13.36;100.00;100617.44;5029956;28;46074;-78
2023/03/18 05:36:33;;;;;;;;;2.00;2.00;;;;;13.32;100.00;100602.47;5033689;28;45362;-78
2023/03/18 05:38:58;;;;;;;;;1.33;1.33;;;;;13.29;100.00;100609.53;5027147;28;45373;-78
2023/03/18 05:41:24;;;;;;;;;4.67;1.00;;;;;13.27;100.00;100606.00;5034530;28;45474;-80
2023/03/18 05:43:50;;;;;;;;;5.00;1.00;;;;;13.17;100.00;100613.09;5036404;28;45745;-78
2023/03/18 05:46:16;;;;;;;;;2.33;2.33;;;;;13.16;100.00;100608.66;5035010;28;45441;-78
2023/03/18 05:48:42;;;;;;;;;1.00;1.00;;;;;13.17;100.00;100615.72;5034476;28;45256;-79
2023/03/18 05:51:07;;;;;;;;;2.00;2.00;;;;;13.14;100.00;100607.78;5026785;28;45506;-80
2023/03/18 05:53:33;;;;;;;;;2.00;2.00;;;;;13.11;100.00;100605.16;5033317;28;47063;-78
2023/03/18 05:55:59;;;;;;;;;1.00;1.00;;;;;13.08;100.00;100610.44;5032221;28;45530;-79
2023/03/18 05:58:24;;;;;;;;;2.00;2.00;;;;;13.07;100.00;100606.03;5031238;28;50994;-78
2023/03/18 06:00:50;;;;;;;;;3.00;2.00;;;;;13.04;100.00;100604.25;5040961;28;45505;-78
2023/03/18 06:03:16;;;;;;;;;3.33;2.33;;;;;13.03;100.00;100610.47;5028761;28;63830;-79
2023/03/18 06:05:42;;;;;;;;;1.00;1.00;;;;;13.01;100.00;100604.28;5035188;28;45554;-79
2023/03/18 06:08:07;;;;;;;;;1.67;1.67;;;;;12.97;100.00;100602.53;5032265;28;45403;-78
2023/03/18 06:10:33;;;;;;;;;1.33;1.00;;;;;12.96;100.00;100610.50;5015832;28;45398;-78
2023/03/18 06:12:59;;;;;;;;;3.67;2.33;;;;;12.92;100.00;100603.44;5030449;28;45512;-78
2023/03/18 06:15:24;;;;;;;;;3.33;3.33;;;;;12.90;100.00;100616.69;5035678;28;45482;-79
2023/03/18 06:17:50;;;;;;;;;5.00;3.00;;;;;12.86;100.00;100601.66;5033992;28;45284;-79
2023/03/18 06:20:18;;;;;;;;;4.00;3.00;;;;;12.84;100.00;100606.97;5033941;28;45300;-79
2023/03/18 06:22:48;;;;;;;;;5.00;3.67;;;;;12.83;100.00;100612.25;5013632;28;46459;-78
2023/03/18 06:25:14;;;;;;;;;3.00;3.00;;;;;12.83;100.00;100614.91;5035667;28;45301;-79
2023/03/18 06:27:40;;;;;;;;;2.00;2.00;;;;;12.81;100.00;100614.91;5029960;28;45265;-77
2023/03/18 06:30:05;;;;;;;;;2.00;2.00;;;;;12.81;100.00;100629.94;5033430;28;45510;-79
2023/03/18 06:32:32;;;;;;;;;4.00;4.00;;;;;12.80;100.00;100622.88;5034284;28;46576;-79
2023/03/18 06:34:58;;;;;;;;;6.00;4.00;;;;;12.79;100.00;100634.38;5030741;28;45510;-78
2023/03/18 06:37:23;;;;;;;;;4.00;3.00;;;;;12.77;100.00;100625.53;5013431;28;45535;-80
2023/03/18 06:39:49;;;;;;;;;6.00;4.00;;;;;12.76;100.00;100637.88;5027959;28;62628;-79
2023/03/18 06:42:14;;;;;;;;;3.33;3.33;;;;;12.75;100.00;100637.91;5034334;28;45746;-77
2023/03/18 06:44:43;;;;;;;;;4.67;3.67;;;;;12.72;100.00;100632.59;5029979;28;45217;-77
2023/03/18 06:47:08;;;;;;;;;2.67;2.67;;;;;12.73;100.00;100635.25;5034283;28;45197;-78
2023/03/18 06:49:34;;;;;;;;;3.67;2.00;;;;;12.74;100.00;100631.72;5013109;28;45497;-80
2023/03/18 06:51:59;;;;;;;;;3.67;3.00;;;;;12.73;100.00;100626.41;5033037;28;69402;-78
2023/03/18 06:54:25;;;;;;;;;3.67;2.67;;;;;12.73;100.00;100635.25;5030400;28;64699;-78
2023/03/18 06:56:50;;;;;;;;;4.00;2.67;;;;;12.71;100.00;100625.53;5033694;28;45427;-78
2023/03/18 06:59:16;;;;;;;;;2.00;2.00;;;;;12.75;100.00;100627.31;5026263;28;45484;-78
2023/03/18 07:01:42;;;;;;;;;4.33;3.00;;;;;12.76;100.00;100632.59;5033310;28;46527;-80
2023/03/18 07:04:07;;;;;;;;;3.67;2.00;;;;;12.78;100.00;100633.50;5035474;28;45359;-80
2023/03/18 07:06:33;;;;;;;;;4.00;2.00;;;;;12.80;100.00;100633.47;5033946;28;45379;-80
2023/03/18 07:09:00;;;;;;;;;1.33;1.33;;;;;12.81;100.00;100633.47;5028532;28;45416;-81
2023/03/18 07:11:25;;;;;;;;;2.00;2.00;;;;;12.83;100.00;100630.81;5032935;28;47387;-82
2023/03/18 07:13:52;;;;;;;;;3.00;1.67;;;;;12.83;100.00;100630.81;5016393;28;45507;-88
2023/03/18 07:16:17;;;;;;;;;4.00;2.00;;;;;12.88;100.00;100644.06;5033430;28;45555;-83
2023/03/18 07:18:42;;;;;;;;;2.00;2.00;;;;;12.89;100.00;100654.69;5016226;28;45702;-82
2023/03/18 07:21:08;;;;;;;;;2.00;2.00;;;;;12.91;100.00;100654.66;5031020;28;64676;-82
2023/03/18 07:23:34;;;;;;;;;2.00;2.00;;;;;12.91;100.00;100655.53;5034365;28;45475;-82
2023/03/18 07:26:00;;;;;;;;;2.00;2.00;;;;;12.91;100.00;100655.53;5016033;28;45503;-80
2023/03/18 07:28:25;;;;;;;;;2.67;1.67;;;;;12.94;100.00;100652.88;5034780;28;45644;-82
2023/03/18 07:30:50;;;;;;;;;3.00;1.67;;;;;12.95;100.00;100652.00;5032967;28;67437;-79
2023/03/18 07:33:16;;;;;;;;;1.00;1.00;;;;;12.98;100.00;100659.94;5032346;28;66470;-80
2023/03/18 07:35:41;;;;;;;;;3.33;1.67;;;;;13.03;100.00;100666.13;5033263;28;45429;-82
2023/03/18 07:38:08;;;;;;;;;2.00;1.33;;;;;13.06;100.00;100667.91;5032211;28;45532;-82
2023/03/18 07:40:33;;;;;;;;;2.00;2.00;;;;;13.10;100.00;100666.97;5034483;28;47997;-80
2023/03/18 07:42:59;;;;;;;;;1.00;1.00;;;;;13.10;100.00;100669.63;5034753;28;45525;-81
2023/03/18 07:45:25;;;;;;;;;3.33;2.00;;;;;13.13;100.00;100667.00;5026627;28;45561;-81
2023/03/18 07:47:50;;;;;;;;;1.67;1.00;;;;;13.16;100.00;100671.41;5035406;28;45445;-80
2023/03/18 07:50:16;;;;;;;;;1.33;1.00;;;;;13.18;100.00;100662.56;5002266;28;46432;-78
2023/03/18 07:52:41;;;;;;;;;2.00;2.00;;;;;13.20;100.00;100655.47;5031736;28;45436;-80
2023/03/18 07:55:08;;;;;;;;;2.00;1.00;;;;;13.22;100.00;100661.72;5029909;28;45504;-78
2023/03/18 07:57:34;;;;;;;;;1.00;1.00;;;;;13.28;100.00;100655.50;5032617;28;45296;-80
2023/03/18 08:00:00;;;;;;;;;1.00;1.00;;;;;13.29;100.00;100659.91;5033334;28;47462;-81
2023/03/18 08:02:27;;;;;;;;;1.33;1.33;;;;;13.33;100.00;100662.56;5035339;28;45424;-81
2023/03/18 08:04:53;;;;;;;;;2.00;1.00;;;;;13.34;100.00;100666.09;5037575;28;45336;-81
2023/03/18 08:07:18;;;;;;;;;1.00;1.00;;;;;13.36;100.00;100661.66;5031672;28;45523;-81
2023/03/18 08:09:43;;;;;;;;;1.00;1.00;;;;;13.38;100.00;100670.50;5037355;28;47448;-84
2023/03/18 08:12:09;;;;;;;;;2.00;1.00;;;;;13.40;100.00;100675.78;5030321;28;46842;-80
2023/03/18 08:14:35;;;;;;;;;1.67;1.00;;;;;13.42;100.00;100676.66;5019296;28;45431;-81
2023/03/18 08:17:02;;;;;;;;;1.00;1.00;;;;;13.44;100.00;100685.50;5018357;28;45389;-81
2023/03/18 08:19:28;;;;;;;;;0.00;0.00;;;;;13.46;100.00;100687.25;5036720;28;46610;-82
2023/03/18 08:21:54;;;;;;;;;2.00;2.00;;;;;13.48;100.00;100690.81;5035287;28;45529;-80
2023/03/18 08:24:20;;;;;;;;;2.00;1.00;;;;;13.53;100.00;100689.03;5019630;28;45524;-83
2023/03/18 08:26:46;;;;;;;;;1.00;1.00;;;;;13.56;100.00;100689.00;5017367;28;45316;-85
2023/03/18 08:29:11;;;;;;;;;1.00;1.00;;;;;13.62;100.00;100688.09;5036222;28;47049;-80
2023/03/18 08:31:37;;;;;;;;;6.67;1.67;;;;;13.66;100.00;100681.00;5035316;28;66715;-79
2023/03/18 08:34:03;;;;;;;;;1.00;1.00;;;;;13.70;100.00;100686.31;5031937;28;45585;-81
2023/03/18 08:36:28;;;;;;;;;2.33;1.00;;;;;13.72;100.00;100680.97;5018371;28;45348;-79
2023/03/18 08:38:54;;;;;;;;;1.33;1.33;;;;;13.76;100.00;100683.63;5031925;28;45679;-81
2023/03/18 08:41:19;;;;;;;;;1.00;1.00;;;;;13.79;100.00;100680.94;5015420;28;45402;-80
2023/03/18 08:43:45;;;;;;;;;2.00;1.00;;;;;13.84;100.00;100679.13;5035069;28;45470;-81
2023/03/18 08:46:11;;;;;;;;;3.00;2.00;;;;;13.85;100.00;100675.63;5027528;28;45517;-82
2023/03/18 08:48:36;;;;;;;;;1.00;1.00;;;;;13.92;100.00;100680.91;5032496;28;46326;-83
2023/03/18 08:51:03;;;;;;;;;3.00;1.00;;;;;13.95;100.00;100679.09;5033984;28;69648;-81
2023/03/18 08:53:29;;;;;;;;;1.00;1.00;;;;;14.00;100.00;100671.09;4996658;28;46738;-81
2023/03/18 08:55:54;;;;;;;;;1.33;1.33;;;;;14.05;100.00;100671.97;5013373;28;45570;-75
2023/03/18 08:58:20;;;;;;;;;4.00;1.00;;;;;14.08;100.00;100667.53;5030328;28;70619;-79
2023/03/18 09:00:45;;;;;;;;;2.00;0.00;;;;;14.11;100.00;100667.53;5035560;28;45447;-73
2023/03/18 09:03:11;;;;;;;;;2.33;2.00;;;;;14.11;100.00;100671.91;5032280;28;45629;-73
2023/03/18 09:05:37;;;;;;;;;3.00;2.00;;;;;14.10;100.00;100676.34;5035400;28;45712;-72
2023/03/18 09:08:02;;;;;;;;;2.67;1.00;;;;;14.09;100.00;100669.28;5032617;28;45574;-73
2023/03/18 09:10:29;;;;;;;;;2.00;2.00;;;;;14.09;100.00;100663.97;5035577;28;46721;-73
2023/03/18 09:12:54;;;;;;;;;3.00;1.00;;;;;14.07;100.00;100668.41;5034618;28;45506;-72
2023/03/18 09:15:19;;;;;;;;;1.00;1.00;;;;;14.10;100.00;100672.81;5014222;28;61286;-73
2023/03/18 09:17:45;;;;;;;;;2.67;0.00;;;;;14.12;100.00;100674.59;5035261;28;45725;-74
2023/03/18 09:20:13;;;;;;;;;3.00;1.00;;;;;14.19;100.00;100679.84;5033385;28;45461;-73
2023/03/18 09:22:40;;;;;;;;;1.67;1.67;;;;;14.19;100.00;100671.88;5035537;28;45454;-73
2023/03/18 09:25:06;;;;;;;;;1.00;1.00;;;;;14.24;100.00;100680.72;5036939;28;45624;-73
2023/03/18 09:27:32;;;;;;;;;2.33;1.33;;;;;14.28;100.00;100682.47;5036831;28;45874;-73
2023/03/18 09:29:58;;;;;;;;;2.00;2.00;;;;;14.32;100.00;100679.75;5035226;28;45509;-73
2023/03/18 09:32:23;;;;;;;;;1.00;1.00;;;;;14.34;100.00;100679.75;5035855;28;45482;-73
2023/03/18 09:34:49;;;;;;;;;1.00;1.00;;;;;14.37;100.00;100680.59;5036200;28;45432;-72
2023/03/18 09:37:14;;;;;;;;;3.67;1.33;;;;;14.43;100.00;100674.34;5036671;28;46451;-75
2023/03/18 09:39:40;;;;;;;;;1.33;1.33;;;;;14.47;100.00;100676.13;5036137;28;45602;-73
2023/03/18 09:42:20;;;;;;;;;2.33;1.00;;;;;14.51;100.00;100669.03;5020154;28;45658;-73
2023/03/18 09:44:54;;;;;;;;;1.00;1.00;;;;;14.59;100.00;100675.16;5035032;28;45441;-75
2023/03/18 09:47:46;;;;;;;;;2.67;1.33;;;;;14.65;100.00;100670.69;5035500;28;47452;-73
2023/03/18 09:50:37;;;;;;;;;2.67;2.67;;;;;14.73;100.00;100670.63;5000036;28;45495;-71
2023/03/18 09:53:19;;;;;;;;;4.00;1.00;;;;;14.79;100.00;100665.25;5026736;28;45497;-70
2023/03/18 09:55:52;;;;;;;;;1.00;1.00;;;;;14.85;100.00;100674.94;5034914;28;46268;-70
2023/03/18 09:58:26;;;;;;;;;1.67;1.67;;;;;14.91;100.00;100659.84;5017437;28;46581;-73
2023/03/18 10:00:56;;;;;;;;;3.00;2.00;;;;;15.01;100.00;100673.00;5032935;28;45545;-73
2023/03/18 10:03:52;;;;;;;;;2.67;2.67;;;;;15.10;100.00;100672.94;5017338;28;45446;-73
2023/03/18 10:06:19;;;;;;;;;3.00;2.00;;;;;15.23;100.00;100676.34;5034212;28;45328;-75
2023/03/18 10:09:08;;;;;;;;;2.00;1.00;;;;;15.31;100.00;100664.72;5018499;28;46468;-76
2023/03/18 10:11:41;;;;;;;;;4.67;1.00;;;;;15.42;100.00;100669.94;5014380;28;45920;-73
2023/03/18 10:14:23;;;;;;;;;2.00;1.00;;;;;15.50;100.00;100667.16;5022486;28;45427;-73
2023/03/18 10:17:15;;;;;;;;;3.67;1.00;;;;;15.64;100.00;100674.13;5022433;28;45594;-72
2023/03/18 10:19:47;;;;;;;;;1.33;1.00;;;;;15.74;100.00;100671.34;5016091;28;46383;-76
2023/03/18 10:22:37;;;;;;;;;1.67;1.67;;;;;15.83;100.00;100676.56;5010121;28;45572;-78
2023/03/18 10:25:37;;;;;;;;;3.00;1.67;;;;;16.00;100.00;100677.22;5033767;28;45672;-76
2023/03/18 10:28:40;;;;;;;;;2.33;1.00;;;;;16.12;100.00;100674.38;4977185;28;45425;-74
2023/03/18 10:31:15;;;;;;;;;0.67;0.33;;;;;16.22;100.00;100676.00;5031319;28;47200;-79
2023/03/18 10:33:56;;;;;;;;;5.00;1.00;;;;;16.36;100.00;100681.13;5030030;28;45430;-74
2023/03/18 10:36:52;;;;;;;;;1.00;1.00;;;;;16.39;100.00;100675.75;5029386;28;45594;-77
2023/03/18 10:39:22;;;;;;;;;2.00;0.67;;;;;16.36;100.00;100682.94;5012328;28;45680;-74
2023/03/18 10:41:49;;;;;;;;;3.00;0.00;;;;;16.37;100.00;100672.25;5016159;28;47360;-74
2023/03/18 10:44:35;;;;;;;;;1.33;1.00;;;;;16.49;100.00;100684.50;5027671;28;45335;-76
2023/03/18 10:47:02;;;;;;;;;0.67;0.67;;;;;16.56;100.00;100682.59;5012965;28;45440;-74
2023/03/18 10:49:36;;;;;;;;;3.00;1.00;;;;;16.56;100.00;100669.28;5011413;28;45364;-74
2023/03/18 10:52:13;;;;;;;;;1.00;1.00;;;;;16.59;100.00;100680.78;5032542;28;46625;-74
2023/03/18 10:54:40;;;;;;;;;4.00;1.00;;;;;16.66;100.00;100670.88;5030691;28;45539;-77
2023/03/18 10:57:12;;;;;;;;;0.67;0.67;;;;;16.79;100.00;100668.94;5032995;28;45510;-75
2023/03/18 10:59:38;;;;;;;;;0.00;0.00;;;;;17.03;100.00;100679.16;5025642;28;45649;-78
2023/03/18 11:02:21;;;;;;;;;1.00;1.00;;;;;17.24;100.00;100669.88;5023916;28;46789;-75
2023/03/18 11:04:49;;;;;;;;;0.33;0.33;;;;;17.44;100.00;100670.38;5030621;28;45577;-76
2023/03/18 11:07:24;;;;;;;;;2.00;1.67;;;;;17.65;100.00;100682.41;5010543;28;45569;-76
2023/03/18 11:09:50;;;;;;;;;0.67;0.67;;;;;17.78;100.00;100673.25;5014663;28;45581;-74
2023/03/18 11:12:29;;;;;;;;;3.00;1.00;;;;;17.79;100.00;100672.38;5033778;28;46509;-76
2023/03/18 11:14:55;;;;;;;;;2.00;0.67;;;;;17.77;100.00;100674.19;5032190;28;45489;-75
2023/03/18 11:17:30;;;;;;;;;0.67;0.67;;;;;17.79;100.00;100669.72;5032851;28;66018;-74
2023/03/18 11:20:05;;;;;;;;;4.00;1.00;;;;;17.75;100.00;100681.34;5026991;28;45815;-75